Terminal Aerodrome Forecast
Issued by NWS Omaha/Valley, NE

Home | Current Version | Previous Version | Graphics & Text | Print | Product List | Glossary On
Versions: 1 2 3 4 5 6 7 8 9 10 11 12 13 14 15 16 17 18 19 20 21 22 23 24 25 26 27 28 29 30 31 32 33 34 35 36 37 38
014
FTUS43 KOAX 221720
TAFOFK
TAF
KOFK 221720Z 2218/2318 30014G21KT P6SM SKC
     FM230000 32008KT P6SM FEW250
     FM230500 36006KT P6SM SCT200
     FM230700 01007KT P6SM BKN060
     FM231000 02009KT P6SM BKN020
     FM231100 03010KT P6SM BKN010=

USA.gov is the U.S. government's official web portal to all federal, state and local government web resources and services.